createdAt,value
2022-09-20T00:01:08.131Z,102110.94
2022-09-20T00:03:36.892Z,102114.19
2022-09-20T00:06:05.275Z,102108.44
2022-09-20T00:08:32.066Z,102110.34
2022-09-20T00:11:03.789Z,102109.59
2022-09-20T00:13:31.111Z,102111.03
2022-09-20T00:15:58.017Z,102104.63
2022-09-20T00:18:25.211Z,102106.16
2022-09-20T00:20:52.403Z,102113.06
2022-09-20T00:23:19.833Z,102108.13
2022-09-20T00:26:00.679Z,102106.47
2022-09-20T00:28:28.945Z,102110.91
2022-09-20T00:30:56.523Z,102108.53
2022-09-20T00:33:45.443Z,102103.84
2022-09-20T00:36:12.470Z,102105.59
2022-09-20T00:38:39.330Z,102111.72
2022-09-20T00:41:06.007Z,102097.72
2022-09-20T00:43:41.438Z,102111.28
2022-09-20T00:46:42.765Z,102112.00
2022-09-20T00:49:25.749Z,102106.03
2022-09-20T00:51:57.524Z,102112.16
2022-09-20T00:54:26.422Z,102109.09
2022-09-20T00:56:53.422Z,102113.22
2022-09-20T00:59:28.309Z,102102.44
2022-09-20T01:02:05.623Z,102108.31
2022-09-20T01:04:35.456Z,102105.63
2022-09-20T01:07:05.945Z,102094.59
2022-09-20T01:09:32.659Z,102106.75
2022-09-20T01:12:03.706Z,102105.91
2022-09-20T01:14:30.877Z,102097.75
2022-09-20T01:17:02.651Z,102098.25
2022-09-20T01:19:48.653Z,102100.41
2022-09-20T01:22:27.506Z,102101.28
2022-09-20T01:25:17.921Z,102096.06
2022-09-20T01:27:59.194Z,102098.81
2022-09-20T01:30:36.688Z,102098.19
2022-09-20T01:33:28.525Z,102097.84
2022-09-20T01:35:58.683Z,102095.13
2022-09-20T01:38:45.467Z,102093.66
2022-09-20T01:41:26.038Z,102097.44
2022-09-20T01:43:58.816Z,102095.50
2022-09-20T01:46:31.468Z,102098.28
2022-09-20T01:49:16.490Z,102106.66
2022-09-20T01:52:12.265Z,102119.28
2022-09-20T01:55:06.838Z,102123.22
2022-09-20T01:57:58.389Z,102124.88
2022-09-20T02:00:37.075Z,102115.34
2022-09-20T02:03:23.746Z,102129.25
2022-09-20T02:06:12.786Z,102132.53
2022-09-20T02:09:21.607Z,102122.41
2022-09-20T02:11:59.225Z,102112.56
2022-09-20T02:14:35.264Z,102112.53
2022-09-20T02:17:35.990Z,102111.06
2022-09-20T02:20:30.674Z,102112.72
2022-09-20T02:23:22.455Z,102120.22
2022-09-20T02:26:08.566Z,102109.41
2022-09-20T02:28:53.642Z,102107.16
2022-09-20T02:31:32.532Z,102108.50
2022-09-20T02:34:16.216Z,102117.84
2022-09-20T02:37:01.711Z,102110.97
2022-09-20T02:39:36.719Z,102102.13
2022-09-20T02:42:17.320Z,102099.97
2022-09-20T02:45:22.140Z,102105.50
2022-09-20T02:47:48.729Z,102109.75
2022-09-20T02:50:34.148Z,102104.31
2022-09-20T02:53:26.967Z,102113.31
2022-09-20T02:56:34.962Z,102108.41
2022-09-20T02:59:05.673Z,102113.63
2022-09-20T03:01:56.294Z,102111.66
2022-09-20T03:04:48.306Z,102107.41
2022-09-20T03:07:20.818Z,102101.66
2022-09-20T03:10:14.201Z,102106.72
2022-09-20T03:13:02.743Z,102108.97
2022-09-20T03:15:54.341Z,102115.03
2022-09-20T03:19:03.034Z,102113.13
2022-09-20T03:21:50.957Z,102120.19
2022-09-20T03:25:04.529Z,102116.63
2022-09-20T03:27:44.655Z,102123.38
2022-09-20T03:30:26.272Z,102120.75
2022-09-20T03:33:15.881Z,102109.13
2022-09-20T03:36:01.258Z,102105.53
2022-09-20T03:39:01.755Z,102102.94
2022-09-20T03:41:55.019Z,102115.88
2022-09-20T03:44:38.220Z,102104.41
2022-09-20T03:47:17.294Z,102108.16
2022-09-20T03:50:13.916Z,102115.97
2022-09-20T03:53:05.158Z,102106.97
2022-09-20T03:55:53.728Z,102110.72
2022-09-20T03:58:42.234Z,102108.59
2022-09-20T04:01:28.120Z,102110.88
2022-09-20T04:04:12.420Z,102115.31
2022-09-20T04:06:38.934Z,102110.38
2022-09-20T04:09:25.939Z,102114.47
2022-09-20T04:12:11.207Z,102103.19
2022-09-20T04:14:41.522Z,102109.06
2022-09-20T04:17:39.509Z,102108.75
2022-09-20T04:20:13.803Z,102102.03
2022-09-20T04:22:44.638Z,102106.06
2022-09-20T04:25:19.326Z,102108.34
2022-09-20T04:27:58.598Z,102102.41
2022-09-20T04:30:30.194Z,102106.34
2022-09-20T04:33:13.068Z,102096.78
2022-09-20T04:36:30.280Z,102083.97
2022-09-20T04:39:25.508Z,102092.75
2022-09-20T04:42:30.098Z,102096.28
2022-09-20T04:45:09.785Z,102100.78
2022-09-20T04:48:06.712Z,102099.75
2022-09-20T04:51:07.119Z,102095.94
2022-09-20T04:53:55.006Z,102103.72
2022-09-20T04:56:38.150Z,102108.78
2022-09-20T04:59:10.312Z,102109.31
2022-09-20T05:01:55.911Z,102112.50
2022-09-20T05:04:38.329Z,102116.28
2022-09-20T05:07:23.065Z,102113.56
2022-09-20T05:10:27.072Z,102119.88
2022-09-20T05:13:00.701Z,102115.81
2022-09-20T05:15:50.824Z,102117.50
2022-09-20T05:18:26.749Z,102116.53
2022-09-20T05:21:19.971Z,102125.34
2022-09-20T05:23:52.917Z,102124.06
2022-09-20T05:26:46.919Z,102120.44
2022-09-20T05:29:28.986Z,102125.41
2022-09-20T05:32:11.905Z,102119.84
2022-09-20T05:35:01.961Z,102132.81
2022-09-20T05:37:44.124Z,102133.59
2022-09-20T05:40:22.284Z,102138.53
2022-09-20T05:43:00.489Z,102153.59
2022-09-20T05:46:04.876Z,102168.00
2022-09-20T05:49:03.860Z,102163.78
2022-09-20T05:51:47.733Z,102167.72
2022-09-20T05:54:17.442Z,102169.03
2022-09-20T05:57:21.255Z,102170.69
2022-09-20T06:00:14.104Z,102161.47
2022-09-20T06:02:57.133Z,102158.56
2022-09-20T06:05:58.950Z,102172.47
2022-09-20T06:08:43.782Z,102177.06
2022-09-20T06:11:29.190Z,102175.91
2022-09-20T06:14:27.862Z,102178.88
2022-09-20T06:17:33.065Z,102180.03
2022-09-20T06:20:16.018Z,102174.81
2022-09-20T06:22:49.810Z,102160.19
2022-09-20T06:25:23.650Z,102171.09
2022-09-20T06:27:52.575Z,102169.28
2022-09-20T06:30:34.778Z,102169.31
2022-09-20T06:33:13.081Z,102176.06
2022-09-20T06:36:23.665Z,102171.78
2022-09-20T06:39:44.837Z,102183.00
2022-09-20T06:42:11.743Z,102191.31
2022-09-20T06:44:41.220Z,102189.22
2022-09-20T06:47:14.266Z,102187.91
2022-09-20T06:49:42.348Z,102175.78
2022-09-20T06:52:14.568Z,102173.38
2022-09-20T06:54:45.622Z,102165.19
2022-09-20T06:57:15.956Z,102170.75
2022-09-20T06:59:42.521Z,102177.81
2022-09-20T07:02:09.059Z,102175.38
2022-09-20T07:04:35.946Z,102172.06
2022-09-20T07:07:09.121Z,102171.22
2022-09-20T07:09:36.532Z,102173.69
2022-09-20T07:12:03.313Z,102173.19
2022-09-20T07:14:29.996Z,102172.94
2022-09-20T07:16:56.826Z,102160.91
2022-09-20T07:19:23.463Z,102169.72
2022-09-20T07:21:50.266Z,102178.09
2022-09-20T07:24:17.784Z,102153.03
2022-09-20T07:27:03.517Z,102173.34
2022-09-20T07:29:32.863Z,102159.47
2022-09-20T07:31:59.550Z,102173.50
2022-09-20T07:34:27.282Z,102172.78
2022-09-20T07:36:53.960Z,102163.75
2022-09-20T07:39:20.673Z,102173.66
2022-09-20T07:41:48.642Z,102172.03
2022-09-20T07:44:21.592Z,102173.25
2022-09-20T07:46:59.378Z,102181.66
2022-09-20T07:49:29.922Z,102191.72
2022-09-20T07:51:56.685Z,102198.53
2022-09-20T07:54:23.286Z,102193.97
2022-09-20T07:56:50.145Z,102197.56
2022-09-20T07:59:16.998Z,102192.25
2022-09-20T08:01:43.911Z,102194.44
2022-09-20T08:04:11.261Z,102205.28
2022-09-20T08:06:44.774Z,102201.19
2022-09-20T08:09:12.211Z,102209.19
2022-09-20T08:11:40.512Z,102209.00
2022-09-20T08:14:09.037Z,102213.88
2022-09-20T08:16:42.009Z,102203.41
2022-09-20T08:19:09.417Z,102206.59
2022-09-20T08:21:38.328Z,102204.44
2022-09-20T08:24:05.229Z,102207.66
2022-09-20T08:26:32.317Z,102207.41
2022-09-20T08:29:00.181Z,102219.22
2022-09-20T08:31:30.674Z,102221.81
2022-09-20T08:33:59.176Z,102215.03
2022-09-20T08:36:27.567Z,102214.59
2022-09-20T08:41:59.313Z,102227.06
2022-09-20T08:44:35.191Z,102232.56
2022-09-20T08:47:25.989Z,102231.75
2022-09-20T08:49:57.710Z,102236.72
2022-09-20T08:52:36.184Z,102228.78
2022-09-20T08:55:39.676Z,102230.94
2022-09-20T08:58:11.980Z,102222.00
2022-09-20T09:00:42.968Z,102221.16
2022-09-20T09:03:17.179Z,102226.91
2022-09-20T09:05:48.328Z,102228.75
2022-09-20T09:08:18.553Z,102238.94
2022-09-20T09:10:53.095Z,102236.34
2022-09-20T09:13:53.200Z,102231.72
2022-09-20T09:16:28.756Z,102238.78
2022-09-20T09:19:33.378Z,102229.63
2022-09-20T09:22:03.310Z,102238.09
2022-09-20T09:24:33.328Z,102242.25
2022-09-20T09:27:19.569Z,102240.81
2022-09-20T09:30:19.690Z,102241.28
2022-09-20T09:32:46.648Z,102239.06
2022-09-20T09:35:24.640Z,102228.63
2022-09-20T09:38:02.302Z,102229.56
2022-09-20T09:40:31.811Z,102224.59
2022-09-20T09:43:02.643Z,102223.78
2022-09-20T09:45:38.643Z,102216.38
2022-09-20T09:48:22.614Z,102218.97
2022-09-20T09:50:49.315Z,102234.22
2022-09-20T09:53:20.695Z,102225.06
2022-09-20T09:56:26.941Z,102222.91
2022-09-20T09:59:02.516Z,102238.03
2022-09-20T10:01:47.903Z,102227.38
2022-09-20T10:04:35.730Z,102237.22
2022-09-20T10:07:33.643Z,102230.03
2022-09-20T10:10:28.086Z,102231.63
2022-09-20T10:13:13.397Z,102231.75
2022-09-20T10:15:56.388Z,102235.84
2022-09-20T10:18:33.883Z,102225.50
2022-09-20T10:21:18.598Z,102224.41
2022-09-20T10:24:04.942Z,102232.13
2022-09-20T10:26:50.669Z,102224.47
2022-09-20T10:29:33.791Z,102211.13
2022-09-20T10:32:13.887Z,102237.09
2022-09-20T10:34:41.640Z,102227.25
2022-09-20T10:37:24.091Z,102232.19
2022-09-20T10:40:07.170Z,102223.69
2022-09-20T10:43:05.109Z,102229.47
2022-09-20T10:46:14.033Z,102235.22
2022-09-20T10:48:47.438Z,102231.63
2022-09-20T10:51:34.083Z,102227.41
2022-09-20T10:54:40.049Z,102232.44
2022-09-20T10:57:46.850Z,102222.56
2022-09-20T11:00:25.536Z,102229.41
2022-09-20T11:03:10.796Z,102227.84
2022-09-20T11:06:12.650Z,102231.53
2022-09-20T11:08:42.806Z,102221.28
2022-09-20T11:11:34.709Z,102232.25
2022-09-20T11:14:19.377Z,102236.53
2022-09-20T11:17:02.324Z,102233.34
2022-09-20T11:19:48.474Z,102230.56
2022-09-20T11:22:21.628Z,102240.88
2022-09-20T11:24:53.945Z,102238.38
2022-09-20T11:27:29.525Z,102241.63
2022-09-20T11:30:16.803Z,102243.97
2022-09-20T11:33:05.738Z,102244.41
2022-09-20T11:35:46.306Z,102237.75
2022-09-20T11:38:22.310Z,102239.94
2022-09-20T11:41:08.726Z,102253.13
2022-09-20T11:43:42.696Z,102239.72
2022-09-20T11:46:13.813Z,102261.50
2022-09-20T11:48:44.550Z,102262.75
2022-09-20T11:51:20.231Z,102258.16
2022-09-20T11:53:55.934Z,102250.88
2022-09-20T11:56:27.679Z,102263.63
2022-09-20T11:58:57.246Z,102255.34
2022-09-20T12:01:29.028Z,102252.38
2022-09-20T12:04:34.767Z,102263.59
2022-09-20T12:07:18.315Z,102265.72
2022-09-20T12:10:06.362Z,102271.88
2022-09-20T12:12:41.592Z,102263.69
2022-09-20T12:15:36.971Z,102261.56
2022-09-20T12:18:34.546Z,102259.00
2022-09-20T12:21:16.178Z,102259.56
2022-09-20T12:23:45.334Z,102258.44
2022-09-20T12:26:21.507Z,102265.41
2022-09-20T12:28:51.034Z,102258.91
2022-09-20T12:31:29.651Z,102251.06
2022-09-20T12:34:10.291Z,102250.94
2022-09-20T12:36:39.213Z,102262.25
2022-09-20T12:39:10.968Z,102257.47
2022-09-20T12:41:52.978Z,102264.59
2022-09-20T12:44:41.842Z,102252.75
2022-09-20T12:47:35.618Z,102258.09
2022-09-20T12:50:34.135Z,102263.28
2022-09-20T12:53:04.539Z,102256.09
2022-09-20T12:55:33.941Z,102262.84
2022-09-20T12:58:18.601Z,102262.13
2022-09-20T13:00:59.288Z,102260.66
2022-09-20T13:03:38.509Z,102258.13
2022-09-20T13:06:12.174Z,102253.31
2022-09-20T13:08:48.276Z,102251.03
2022-09-20T13:11:22.396Z,102254.69
2022-09-20T13:14:18.930Z,102246.56
2022-09-20T13:16:54.590Z,102252.44
2022-09-20T13:19:39.260Z,102248.25
2022-09-20T13:22:16.242Z,102253.59
2022-09-20T13:24:51.769Z,102245.97
2022-09-20T13:27:23.831Z,102250.16
2022-09-20T13:29:50.992Z,102245.75
2022-09-20T13:32:28.981Z,102229.22
2022-09-20T13:35:14.895Z,102241.50
2022-09-20T13:38:00.159Z,102227.38
2022-09-20T13:40:34.353Z,102237.78
2022-09-20T13:43:22.533Z,102238.97
2022-09-20T13:45:56.193Z,102240.69
2022-09-20T13:48:28.004Z,102237.16
2022-09-20T13:51:04.324Z,102234.22
2022-09-20T13:53:46.314Z,102242.00
2022-09-20T13:56:29.759Z,102232.47
2022-09-20T13:58:59.028Z,102236.94
2022-09-20T14:01:32.945Z,102230.41
2022-09-20T14:04:05.218Z,102234.94
2022-09-20T14:06:32.373Z,102229.00
2022-09-20T14:09:08.347Z,102229.06
2022-09-20T14:11:38.468Z,102239.94
2022-09-20T14:14:07.109Z,102224.81
2022-09-20T14:16:39.655Z,102241.06
2022-09-20T14:19:09.691Z,102235.78
2022-09-20T14:21:38.221Z,102237.94
2022-09-20T14:24:27.523Z,102223.47
2022-09-20T14:27:20.887Z,102236.63
2022-09-20T14:29:50.751Z,102237.03
2022-09-20T14:32:17.364Z,102235.94
2022-09-20T14:34:46.764Z,102230.91
2022-09-20T14:37:36.767Z,102242.81
2022-09-20T14:40:16.609Z,102226.53
2022-09-20T14:42:48.439Z,102212.41
2022-09-20T14:45:28.082Z,102210.13
2022-09-20T14:48:10.457Z,102231.59
2022-09-20T14:50:39.905Z,102227.56
2022-09-20T14:53:12.635Z,102229.72
2022-09-20T14:56:25.519Z,102223.78
2022-09-20T14:59:19.208Z,102234.50
2022-09-20T15:02:10.350Z,102226.78
2022-09-20T15:04:38.043Z,102222.06
2022-09-20T15:07:07.063Z,102221.88
2022-09-20T15:09:35.239Z,102215.84
2022-09-20T15:12:12.134Z,102219.19
2022-09-20T15:14:40.646Z,102223.47
2022-09-20T15:17:18.117Z,102219.94
2022-09-20T15:19:46.164Z,102219.63
2022-09-20T15:22:14.129Z,102213.25
2022-09-20T15:24:41.578Z,102229.88
2022-09-20T15:27:09.366Z,102215.56
2022-09-20T15:29:35.996Z,102215.09
2022-09-20T15:32:04.506Z,102224.03
2022-09-20T15:34:32.123Z,102206.38
2022-09-20T15:36:58.811Z,102211.78
2022-09-20T15:39:25.926Z,102210.13
2022-09-20T15:41:53.459Z,102200.31
2022-09-20T15:44:20.700Z,102218.97
2022-09-20T15:46:50.084Z,102211.00
2022-09-20T15:49:16.921Z,102203.81
2022-09-20T15:51:43.586Z,102210.09
2022-09-20T15:54:13.168Z,102203.19
2022-09-20T15:56:40.453Z,102196.28
2022-09-20T15:59:09.347Z,102209.22
2022-09-20T16:01:41.776Z,102212.47
2022-09-20T16:04:19.242Z,102212.75
2022-09-20T16:06:49.438Z,102216.06
2022-09-20T16:09:19.508Z,102211.78
2022-09-20T16:11:48.231Z,102215.78
2022-09-20T16:14:15.443Z,102203.56
2022-09-20T16:16:42.091Z,102227.28
2022-09-20T16:19:19.617Z,102205.94
2022-09-20T16:21:58.294Z,102221.28
2022-09-20T16:24:28.557Z,102211.34
2022-09-20T16:26:55.447Z,102216.91
2022-09-20T16:29:22.398Z,102225.00
2022-09-20T16:31:50.334Z,102215.53
2022-09-20T16:34:21.988Z,102220.34
2022-09-20T16:36:54.202Z,102226.63
2022-09-20T16:39:27.661Z,102224.00
2022-09-20T16:41:57.285Z,102209.78
2022-09-20T16:44:24.581Z,102224.16
2022-09-20T16:46:51.484Z,102221.59
2022-09-20T16:49:18.467Z,102227.56
2022-09-20T16:51:46.337Z,102236.19
2022-09-20T16:54:15.455Z,102238.81
2022-09-20T16:56:47.526Z,102233.91
2022-09-20T16:59:16.302Z,102232.00
2022-09-20T17:01:43.864Z,102240.34
2022-09-20T17:04:13.449Z,102239.59
2022-09-20T17:06:41.799Z,102232.56
2022-09-20T17:09:09.023Z,102239.06
2022-09-20T17:11:39.277Z,102244.66
2022-09-20T17:14:06.409Z,102251.31
2022-09-20T17:16:39.846Z,102231.84
2022-09-20T17:19:12.586Z,102246.81
2022-09-20T17:21:45.178Z,102253.13
2022-09-20T17:24:13.741Z,102238.41
2022-09-20T17:26:44.435Z,102253.88
2022-09-20T17:29:16.993Z,102247.13
2022-09-20T17:31:54.481Z,102262.66
2022-09-20T17:34:23.877Z,102261.38
2022-09-20T17:36:50.880Z,102269.59
2022-09-20T17:39:18.316Z,102263.38
2022-09-20T17:41:47.113Z,102259.97
2022-09-20T17:44:14.622Z,102273.91
2022-09-20T17:46:49.872Z,102271.25
2022-09-20T17:49:21.959Z,102278.50
2022-09-20T17:51:51.113Z,102278.53
2022-09-20T17:54:19.143Z,102275.91
2022-09-20T17:56:48.737Z,102281.16
2022-09-20T17:59:19.008Z,102283.81
2022-09-20T18:01:47.845Z,102281.34
2022-09-20T18:04:14.629Z,102285.97
2022-09-20T18:06:45.134Z,102290.59
2022-09-20T18:09:15.488Z,102297.94
2022-09-20T18:11:49.855Z,102296.34
2022-09-20T18:14:25.025Z,102283.69
2022-09-20T18:16:53.182Z,102305.72
2022-09-20T18:19:21.415Z,102310.16
2022-09-20T18:21:48.557Z,102310.97
2022-09-20T18:24:15.200Z,102307.50
2022-09-20T18:26:42.073Z,102305.69
2022-09-20T18:29:13.891Z,102310.47
2022-09-20T18:31:44.712Z,102311.75
2022-09-20T18:34:20.282Z,102308.47
2022-09-20T18:36:52.525Z,102316.03
2022-09-20T18:39:27.583Z,102313.72
2022-09-20T18:41:55.119Z,102321.94
2022-09-20T18:44:23.068Z,102326.88
2022-09-20T18:46:54.159Z,102321.16
2022-09-20T18:49:21.698Z,102316.56
2022-09-20T18:51:48.861Z,102318.34
2022-09-20T18:54:17.705Z,102333.81
2022-09-20T18:56:46.730Z,102320.81
2022-09-20T18:59:32.295Z,102322.63
2022-09-20T19:02:35.847Z,102335.59
2022-09-20T19:05:28.224Z,102334.09
2022-09-20T19:08:08.792Z,102335.13
2022-09-20T19:10:56.130Z,102343.31
2022-09-20T19:13:27.302Z,102347.75
2022-09-20T19:16:11.733Z,102350.19
2022-09-20T19:18:50.724Z,102350.19
2022-09-20T19:21:31.027Z,102338.22
2022-09-20T19:24:22.487Z,102348.56
2022-09-20T19:26:49.487Z,102345.44
2022-09-20T19:29:22.410Z,102339.38
2022-09-20T19:31:51.331Z,102354.97
2022-09-20T19:34:21.874Z,102360.72
2022-09-20T19:37:18.843Z,102353.81
2022-09-20T19:39:58.469Z,102352.34
2022-09-20T19:42:42.405Z,102362.69
2022-09-20T19:45:24.427Z,102369.09
2022-09-20T19:47:58.075Z,102371.56
2022-09-20T19:50:28.052Z,102369.28
2022-09-20T19:52:57.885Z,102369.75
2022-09-20T19:55:25.132Z,102375.16
2022-09-20T19:57:52.127Z,102379.91
2022-09-20T20:00:21.251Z,102371.91
2022-09-20T20:02:48.909Z,102374.84
2022-09-20T20:05:21.074Z,102367.97
2022-09-20T20:08:14.422Z,102383.53
2022-09-20T20:11:00.092Z,102392.84
2022-09-20T20:13:55.526Z,102391.03
2022-09-20T20:16:33.557Z,102399.09
2022-09-20T20:19:31.808Z,102392.16
2022-09-20T20:22:29.936Z,102401.34
2022-09-20T20:24:57.399Z,102394.28
2022-09-20T20:27:25.980Z,102402.66
2022-09-20T20:29:52.614Z,102403.97
2022-09-20T20:32:19.332Z,102407.25
2022-09-20T20:34:46.885Z,102406.25
2022-09-20T20:37:13.865Z,102404.09
2022-09-20T20:39:40.444Z,102409.69
2022-09-20T20:42:08.419Z,102396.69
2022-09-20T20:44:35.056Z,102410.97
2022-09-20T20:47:05.874Z,102416.22
2022-09-20T20:49:32.972Z,102410.63
2022-09-20T20:52:04.851Z,102417.50
2022-09-20T20:54:32.591Z,102421.63
2022-09-20T20:56:59.448Z,102420.31
2022-09-20T20:59:26.437Z,102423.56
2022-09-20T21:01:53.594Z,102426.69
2022-09-20T21:04:21.439Z,102423.88
2022-09-20T21:06:47.966Z,102426.88
2022-09-20T21:09:14.459Z,102429.00
2022-09-20T21:11:44.109Z,102429.19
2022-09-20T21:14:12.651Z,102430.00
2022-09-20T21:16:45.101Z,102431.16
2022-09-20T21:19:15.281Z,102432.59
2022-09-20T21:21:43.722Z,102432.59
2022-09-20T21:24:17.068Z,102428.19
2022-09-20T21:26:44.694Z,102433.81
2022-09-20T21:29:12.262Z,102432.00
2022-09-20T21:31:41.214Z,102435.94
2022-09-20T21:34:09.222Z,102432.00
2022-09-20T21:36:37.526Z,102437.06
2022-09-20T21:39:05.844Z,102437.38
2022-09-20T21:41:34.745Z,102441.50
2022-09-20T21:44:03.353Z,102434.75
2022-09-20T21:46:31.730Z,102429.78
2022-09-20T21:49:00.844Z,102427.81
2022-09-20T21:51:31.425Z,102437.00
2022-09-20T21:54:01.333Z,102439.56
2022-09-20T21:56:31.266Z,102440.56
2022-09-20T21:58:58.566Z,102438.72
2022-09-20T22:01:27.313Z,102444.56
2022-09-20T22:04:01.334Z,102439.16
2022-09-20T22:06:30.274Z,102438.06
2022-09-20T22:09:01.510Z,102449.06
2022-09-20T22:11:34.817Z,102445.84
2022-09-20T22:14:02.085Z,102443.84
2022-09-20T22:16:37.888Z,102451.09
2022-09-20T22:19:07.786Z,102442.47
2022-09-20T22:21:37.252Z,102449.28
2022-09-20T22:24:07.797Z,102446.63
2022-09-20T22:26:40.614Z,102453.69
2022-09-20T22:29:07.839Z,102448.06
2022-09-20T22:31:37.551Z,102452.47
2022-09-20T22:34:07.303Z,102442.66
2022-09-20T22:36:36.329Z,102446.91
2022-09-20T22:39:05.428Z,102443.06
2022-09-20T22:41:32.492Z,102437.38
2022-09-20T22:44:02.819Z,102444.44
2022-09-20T22:46:31.115Z,102439.13
2022-09-20T22:48:58.520Z,102438.06
2022-09-20T22:51:28.204Z,102437.75
2022-09-20T22:53:55.597Z,102441.50
2022-09-20T22:56:29.814Z,102445.50
2022-09-20T22:59:05.003Z,102447.81
2022-09-20T23:01:34.679Z,102453.03
2022-09-20T23:04:08.941Z,102447.66
2022-09-20T23:07:02.361Z,102461.22
2022-09-20T23:09:29.103Z,102452.69
2022-09-20T23:11:56.202Z,102459.75
2022-09-20T23:14:23.441Z,102452.97
2022-09-20T23:16:50.566Z,102453.50
2022-09-20T23:19:18.045Z,102454.47
2022-09-20T23:21:45.270Z,102457.31
2022-09-20T23:24:14.310Z,102462.72
2022-09-20T23:26:43.049Z,102460.53
2022-09-20T23:29:15.289Z,102453.28
2022-09-20T23:31:46.034Z,102450.72
2022-09-20T23:34:14.387Z,102458.59
2022-09-20T23:36:41.615Z,102455.38
2022-09-20T23:39:09.897Z,102453.25
2022-09-20T23:41:37.367Z,102462.72
2022-09-20T23:44:09.869Z,102456.16
2022-09-20T23:46:37.499Z,102452.44
2022-09-20T23:49:04.464Z,102447.91
2022-09-20T23:51:32.656Z,102456.72
2022-09-20T23:53:59.566Z,102455.91
2022-09-20T23:56:27.463Z,102450.13
2022-09-20T23:58:54.567Z,102459.19
